sensor_id;sensor_type;location;lat;lon;timestamp;temperature;humidity
4795;DHT22;2411;47.060;15.064;2022-11-25T00:01:17;0.50;1.00
4795;DHT22;2411;47.060;15.064;2022-11-25T00:03:45;0.50;1.30
4795;DHT22;2411;47.060;15.064;2022-11-25T00:06:15;0.50;4.20
4795;DHT22;2411;47.060;15.064;2022-11-25T00:08:44;0.70;5.80
4795;DHT22;2411;47.060;15.064;2022-11-25T00:11:13;0.70;4.20
4795;DHT22;2411;47.060;15.064;2022-11-25T00:13:41;0.60;3.60
4795;DHT22;2411;47.060;15.064;2022-11-25T00:16:12;0.70;5.50
4795;DHT22;2411;47.060;15.064;2022-11-25T00:18:44;0.80;6.00
4795;DHT22;2411;47.060;15.064;2022-11-25T00:21:13;0.80;5.80
4795;DHT22;2411;47.060;15.064;2022-11-25T00:23:41;0.70;2.20
4795;DHT22;2411;47.060;15.064;2022-11-25T00:26:10;0.70;1.50
4795;DHT22;2411;47.060;15.064;2022-11-25T00:28:39;0.70;2.60
4795;DHT22;2411;47.060;15.064;2022-11-25T00:31:09;0.70;2.40
4795;DHT22;2411;47.060;15.064;2022-11-25T00:33:37;0.70;2.40
4795;DHT22;2411;47.060;15.064;2022-11-25T00:36:06;0.70;1.30
4795;DHT22;2411;47.060;15.064;2022-11-25T00:38:33;0.60;1.00
4795;DHT22;2411;47.060;15.064;2022-11-25T00:41:00;0.80;3.50
4795;DHT22;2411;47.060;15.064;2022-11-25T00:43:46;0.80;1.00
4795;DHT22;2411;47.060;15.064;2022-11-25T00:46:32;0.60;1.00
4795;DHT22;2411;47.060;15.064;2022-11-25T00:48:59;0.50;3.90
4795;DHT22;2411;47.060;15.064;2022-11-25T00:51:27;0.30;4.00
4795;DHT22;2411;47.060;15.064;2022-11-25T00:53:54;0.20;4.20
4795;DHT22;2411;47.060;15.064;2022-11-25T00:56:25;0.00;4.30
4795;DHT22;2411;47.060;15.064;2022-11-25T00:58:52;0.00;9.40
4795;DHT22;2411;47.060;15.064;2022-11-25T01:01:20;0.00;13.10
4795;DHT22;2411;47.060;15.064;2022-11-25T01:03:51;0.20;13.00
4795;DHT22;2411;47.060;15.064;2022-11-25T01:06:19;0.40;9.90
4795;DHT22;2411;47.060;15.064;2022-11-25T01:08:47;0.50;8.70
4795;DHT22;2411;47.060;15.064;2022-11-25T01:11:17;0.50;6.90
4795;DHT22;2411;47.060;15.064;2022-11-25T01:13:45;0.40;5.00
4795;DHT22;2411;47.060;15.064;2022-11-25T01:16:14;0.30;4.70
4795;DHT22;2411;47.060;15.064;2022-11-25T01:18:42;0.20;5.80
4795;DHT22;2411;47.060;15.064;2022-11-25T01:21:21;0.20;5.00
4795;DHT22;2411;47.060;15.064;2022-11-25T01:23:51;0.30;7.30
4795;DHT22;2411;47.060;15.064;2022-11-25T01:26:23;0.20;4.20
4795;DHT22;2411;47.060;15.064;2022-11-25T01:28:55;0.10;3.50
4795;DHT22;2411;47.060;15.064;2022-11-25T01:31:23;0.30;3.90
4795;DHT22;2411;47.060;15.064;2022-11-25T01:33:54;0.30;5.60
4795;DHT22;2411;47.060;15.064;2022-11-25T01:36:23;0.30;4.00
4795;DHT22;2411;47.060;15.064;2022-11-25T01:38:52;0.40;5.00
4795;DHT22;2411;47.060;15.064;2022-11-25T01:41:20;0.20;6.30
4795;DHT22;2411;47.060;15.064;2022-11-25T01:44:04;0.00;8.80
4795;DHT22;2411;47.060;15.064;2022-11-25T01:52:21;0.10;8.50
4795;DHT22;2411;47.060;15.064;2022-11-25T01:54:53;0.20;8.90
4795;DHT22;2411;47.060;15.064;2022-11-25T01:57:29;0.30;6.80
4795;DHT22;2411;47.060;15.064;2022-11-25T01:59:59;0.00;1.70
4795;DHT22;2411;47.060;15.064;2022-11-25T02:02:28;-0.10;5.30
4795;DHT22;2411;47.060;15.064;2022-11-25T02:04:55;-0.20;4.30
4795;DHT22;2411;47.060;15.064;2022-11-25T02:10:01;-0.40;9.40
4795;DHT22;2411;47.060;15.064;2022-11-25T02:12:30;-0.30;12.80
4795;DHT22;2411;47.060;15.064;2022-11-25T02:14:58;-0.20;11.00
4795;DHT22;2411;47.060;15.064;2022-11-25T02:17:25;-0.20;11.60
4795;DHT22;2411;47.060;15.064;2022-11-25T02:22:30;0.00;13.50
4795;DHT22;2411;47.060;15.064;2022-11-25T02:25:25;0.00;11.00
4795;DHT22;2411;47.060;15.064;2022-11-25T02:28:07;-0.10;8.90
4795;DHT22;2411;47.060;15.064;2022-11-25T02:30:35;-0.20;9.80
4795;DHT22;2411;47.060;15.064;2022-11-25T02:33:03;-0.30;11.30
4795;DHT22;2411;47.060;15.064;2022-11-25T02:36:03;-0.30;10.90
4795;DHT22;2411;47.060;15.064;2022-11-25T02:38:50;-0.40;11.90
4795;DHT22;2411;47.060;15.064;2022-11-25T02:41:28;-0.40;15.80
4795;DHT22;2411;47.060;15.064;2022-11-25T02:43:57;-0.10;11.90
4795;DHT22;2411;47.060;15.064;2022-11-25T02:46:26;0.10;10.40
4795;DHT22;2411;47.060;15.064;2022-11-25T02:48:54;0.20;7.70
4795;DHT22;2411;47.060;15.064;2022-11-25T02:51:39;0.00;7.20
4795;DHT22;2411;47.060;15.064;2022-11-25T02:54:07;-0.20;6.70
4795;DHT22;2411;47.060;15.064;2022-11-25T02:56:35;-0.30;9.00
4795;DHT22;2411;47.060;15.064;2022-11-25T02:59:03;-0.10;10.10
4795;DHT22;2411;47.060;15.064;2022-11-25T03:01:30;0.00;7.70
4795;DHT22;2411;47.060;15.064;2022-11-25T03:03:58;0.00;8.70
4795;DHT22;2411;47.060;15.064;2022-11-25T03:06:26;-0.10;9.20
4795;DHT22;2411;47.060;15.064;2022-11-25T03:08:53;-0.10;9.80
4795;DHT22;2411;47.060;15.064;2022-11-25T03:11:21;-0.10;8.00
4795;DHT22;2411;47.060;15.064;2022-11-25T03:14:08;-0.10;10.10
4795;DHT22;2411;47.060;15.064;2022-11-25T03:16:35;0.20;7.50
4795;DHT22;2411;47.060;15.064;2022-11-25T03:19:03;0.40;3.90
4795;DHT22;2411;47.060;15.064;2022-11-25T03:21:31;0.50;3.20
4795;DHT22;2411;47.060;15.064;2022-11-25T03:23:58;0.50;2.20
4795;DHT22;2411;47.060;15.064;2022-11-25T03:26:25;0.50;1.40
4795;DHT22;2411;47.060;15.064;2022-11-25T03:28:52;0.10;1.00
4795;DHT22;2411;47.060;15.064;2022-11-25T03:31:19;-0.10;3.80
4795;DHT22;2411;47.060;15.064;2022-11-25T03:33:47;-0.30;3.10
4795;DHT22;2411;47.060;15.064;2022-11-25T03:36:14;-0.40;5.10
4795;DHT22;2411;47.060;15.064;2022-11-25T03:38:41;-0.50;10.10
4795;DHT22;2411;47.060;15.064;2022-11-25T03:41:08;-0.40;10.60
4795;DHT22;2411;47.060;15.064;2022-11-25T03:43:35;-0.30;8.80
4795;DHT22;2411;47.060;15.064;2022-11-25T03:46:03;-0.30;6.60
4795;DHT22;2411;47.060;15.064;2022-11-25T03:48:30;-0.10;5.80
4795;DHT22;2411;47.060;15.064;2022-11-25T03:50:57;-0.10;4.90
4795;DHT22;2411;47.060;15.064;2022-11-25T03:53:24;-0.30;4.10
4795;DHT22;2411;47.060;15.064;2022-11-25T03:55:51;-0.40;6.80
4795;DHT22;2411;47.060;15.064;2022-11-25T03:58:19;-0.40;10.00
4795;DHT22;2411;47.060;15.064;2022-11-25T04:00:46;-0.40;11.30
4795;DHT22;2411;47.060;15.064;2022-11-25T04:03:13;-0.40;26.30
4795;DHT22;2411;47.060;15.064;2022-11-25T04:05:40;-0.40;10.00
4795;DHT22;2411;47.060;15.064;2022-11-25T04:08:07;-0.50;8.90
4795;DHT22;2411;47.060;15.064;2022-11-25T04:10:35;-0.50;8.70
4795;DHT22;2411;47.060;15.064;2022-11-25T04:13:02;-0.40;9.40
4795;DHT22;2411;47.060;15.064;2022-11-25T04:15:29;-0.40;10.10
4795;DHT22;2411;47.060;15.064;2022-11-25T04:17:56;-0.40;7.40
4795;DHT22;2411;47.060;15.064;2022-11-25T04:20:23;-0.60;4.00
4795;DHT22;2411;47.060;15.064;2022-11-25T04:22:50;-0.60;7.40
4795;DHT22;2411;47.060;15.064;2022-11-25T04:25:18;-0.50;7.10
4795;DHT22;2411;47.060;15.064;2022-11-25T04:27:45;-0.50;7.90
4795;DHT22;2411;47.060;15.064;2022-11-25T04:30:13;-0.30;7.10
4795;DHT22;2411;47.060;15.064;2022-11-25T04:32:40;-0.40;6.60
4795;DHT22;2411;47.060;15.064;2022-11-25T04:35:08;-0.40;6.30
4795;DHT22;2411;47.060;15.064;2022-11-25T04:37:35;-0.50;5.00
4795;DHT22;2411;47.060;15.064;2022-11-25T04:40:03;-0.70;5.60
4795;DHT22;2411;47.060;15.064;2022-11-25T04:42:30;-0.70;5.50
4795;DHT22;2411;47.060;15.064;2022-11-25T04:44:59;-0.90;6.20
4795;DHT22;2411;47.060;15.064;2022-11-25T04:47:46;-1.00;7.80
4795;DHT22;2411;47.060;15.064;2022-11-25T04:50:16;-1.00;13.80
4795;DHT22;2411;47.060;15.064;2022-11-25T04:52:44;-1.00;14.60
4795;DHT22;2411;47.060;15.064;2022-11-25T04:55:12;-1.00;16.30
4795;DHT22;2411;47.060;15.064;2022-11-25T04:57:39;-0.90;18.10
4795;DHT22;2411;47.060;15.064;2022-11-25T05:00:07;-0.80;15.80
4795;DHT22;2411;47.060;15.064;2022-11-25T05:02:35;-0.90;14.30
4795;DHT22;2411;47.060;15.064;2022-11-25T05:05:02;-0.80;13.80
4795;DHT22;2411;47.060;15.064;2022-11-25T05:07:30;-0.70;11.50
4795;DHT22;2411;47.060;15.064;2022-11-25T05:09:57;-0.70;13.40
4795;DHT22;2411;47.060;15.064;2022-11-25T05:12:27;-0.50;11.40
4795;DHT22;2411;47.060;15.064;2022-11-25T05:14:55;-0.30;8.30
4795;DHT22;2411;47.060;15.064;2022-11-25T05:17:25;-0.10;6.60
4795;DHT22;2411;47.060;15.064;2022-11-25T05:19:53;0.20;3.90
4795;DHT22;2411;47.060;15.064;2022-11-25T05:22:28;0.20;1.40
4795;DHT22;2411;47.060;15.064;2022-11-25T05:24:56;0.30;1.00
4795;DHT22;2411;47.060;15.064;2022-11-25T05:27:24;0.30;1.00
4795;DHT22;2411;47.060;15.064;2022-11-25T05:29:52;-0.10;1.00
4795;DHT22;2411;47.060;15.064;2022-11-25T05:32:22;-0.30;1.00
4795;DHT22;2411;47.060;15.064;2022-11-25T05:34:49;-0.50;1.60
4795;DHT22;2411;47.060;15.064;2022-11-25T05:37:17;-0.60;2.40
4795;DHT22;2411;47.060;15.064;2022-11-25T05:39:49;-0.70;1.00
4795;DHT22;2411;47.060;15.064;2022-11-25T05:42:17;-0.60;2.50
4795;DHT22;2411;47.060;15.064;2022-11-25T05:44:44;-0.60;4.70
4795;DHT22;2411;47.060;15.064;2022-11-25T05:47:11;-0.60;6.40
4795;DHT22;2411;47.060;15.064;2022-11-25T05:49:38;-0.70;6.10
4795;DHT22;2411;47.060;15.064;2022-11-25T05:52:05;-0.80;5.10
4795;DHT22;2411;47.060;15.064;2022-11-25T05:54:33;-0.90;4.40
4795;DHT22;2411;47.060;15.064;2022-11-25T05:57:01;-0.90;5.00
4795;DHT22;2411;47.060;15.064;2022-11-25T05:59:28;-0.90;8.00
4795;DHT22;2411;47.060;15.064;2022-11-25T06:01:55;-0.20;17.80
4795;DHT22;2411;47.060;15.064;2022-11-25T06:04:23;-0.50;10.50
4795;DHT22;2411;47.060;15.064;2022-11-25T06:06:51;-0.60;8.50
4795;DHT22;2411;47.060;15.064;2022-11-25T06:09:18;-0.60;7.20
4795;DHT22;2411;47.060;15.064;2022-11-25T06:11:45;-0.70;4.90
4795;DHT22;2411;47.060;15.064;2022-11-25T06:14:13;-1.10;2.10
4795;DHT22;2411;47.060;15.064;2022-11-25T06:16:40;-1.20;6.20
4795;DHT22;2411;47.060;15.064;2022-11-25T06:19:08;-1.20;9.10
4795;DHT22;2411;47.060;15.064;2022-11-25T06:21:36;-1.10;12.50
4795;DHT22;2411;47.060;15.064;2022-11-25T06:24:03;-1.10;10.80
4795;DHT22;2411;47.060;15.064;2022-11-25T06:26:30;-1.10;10.30
4795;DHT22;2411;47.060;15.064;2022-11-25T06:28:57;-1.30;7.40
4795;DHT22;2411;47.060;15.064;2022-11-25T06:31:25;-1.40;9.60
4795;DHT22;2411;47.060;15.064;2022-11-25T06:33:53;-1.40;14.70
4795;DHT22;2411;47.060;15.064;2022-11-25T06:36:21;-1.30;19.30
4795;DHT22;2411;47.060;15.064;2022-11-25T06:38:53;-1.10;17.30
4795;DHT22;2411;47.060;15.064;2022-11-25T06:41:21;-0.90;13.90
4795;DHT22;2411;47.060;15.064;2022-11-25T06:43:49;-0.90;15.40
4795;DHT22;2411;47.060;15.064;2022-11-25T06:46:17;-0.80;16.70
4795;DHT22;2411;47.060;15.064;2022-11-25T06:48:51;-0.50;11.30
4795;DHT22;2411;47.060;15.064;2022-11-25T06:51:19;-0.30;9.60
4795;DHT22;2411;47.060;15.064;2022-11-25T06:53:46;-0.10;7.90
4795;DHT22;2411;47.060;15.064;2022-11-25T06:56:22;0.00;4.10
4795;DHT22;2411;47.060;15.064;2022-11-25T06:58:51;0.00;3.20
4795;DHT22;2411;47.060;15.064;2022-11-25T07:01:23;0.00;7.80
4795;DHT22;2411;47.060;15.064;2022-11-25T07:03:53;0.10;4.60
4795;DHT22;2411;47.060;15.064;2022-11-25T07:06:21;0.40;2.50
4795;DHT22;2411;47.060;15.064;2022-11-25T07:08:48;0.40;4.00
4795;DHT22;2411;47.060;15.064;2022-11-25T07:11:18;0.40;6.50
4795;DHT22;2411;47.060;15.064;2022-11-25T07:13:47;0.30;8.10
4795;DHT22;2411;47.060;15.064;2022-11-25T07:16:14;0.40;11.30
4795;DHT22;2411;47.060;15.064;2022-11-25T07:18:42;0.40;12.00
4795;DHT22;2411;47.060;15.064;2022-11-25T07:21:15;0.40;11.80
4795;DHT22;2411;47.060;15.064;2022-11-25T07:23:43;0.50;15.40
4795;DHT22;2411;47.060;15.064;2022-11-25T07:26:14;0.60;14.90
4795;DHT22;2411;47.060;15.064;2022-11-25T07:28:42;0.60;10.90
4795;DHT22;2411;47.060;15.064;2022-11-25T07:34:02;0.60;12.40
4795;DHT22;2411;47.060;15.064;2022-11-25T07:36:31;0.80;15.70
4795;DHT22;2411;47.060;15.064;2022-11-25T07:39:00;1.00;16.20
4795;DHT22;2411;47.060;15.064;2022-11-25T07:41:28;1.00;13.70
4795;DHT22;2411;47.060;15.064;2022-11-25T07:43:57;1.10;11.50
4795;DHT22;2411;47.060;15.064;2022-11-25T07:46:26;1.20;13.20
4795;DHT22;2411;47.060;15.064;2022-11-25T07:48:57;1.20;12.70
4795;DHT22;2411;47.060;15.064;2022-11-25T07:51:28;1.30;13.60
4795;DHT22;2411;47.060;15.064;2022-11-25T07:53:57;1.40;12.20
4795;DHT22;2411;47.060;15.064;2022-11-25T07:56:24;1.40;12.30
4795;DHT22;2411;47.060;15.064;2022-11-25T07:58:52;1.50;9.90
4795;DHT22;2411;47.060;15.064;2022-11-25T08:01:20;1.60;12.50
4795;DHT22;2411;47.060;15.064;2022-11-25T08:03:49;1.70;11.50
4795;DHT22;2411;47.060;15.064;2022-11-25T08:06:22;1.80;10.60
4795;DHT22;2411;47.060;15.064;2022-11-25T08:08:50;2.00;10.10
4795;DHT22;2411;47.060;15.064;2022-11-25T08:11:24;2.00;7.90
4795;DHT22;2411;47.060;15.064;2022-11-25T08:13:52;2.10;6.50
4795;DHT22;2411;47.060;15.064;2022-11-25T08:16:22;2.20;6.40
4795;DHT22;2411;47.060;15.064;2022-11-25T08:18:49;2.20;2.20
4795;DHT22;2411;47.060;15.064;2022-11-25T08:21:17;2.10;3.20
4795;DHT22;2411;47.060;15.064;2022-11-25T08:23:45;2.20;1.70
4795;DHT22;2411;47.060;15.064;2022-11-25T08:26:21;2.30;2.40
4795;DHT22;2411;47.060;15.064;2022-11-25T08:28:49;2.40;1.40
4795;DHT22;2411;47.060;15.064;2022-11-25T08:31:22;2.50;1.60
4795;DHT22;2411;47.060;15.064;2022-11-25T08:33:50;2.60;1.30
4795;DHT22;2411;47.060;15.064;2022-11-25T08:36:18;2.70;1.30
4795;DHT22;2411;47.060;15.064;2022-11-25T08:38:50;2.90;1.00
4795;DHT22;2411;47.060;15.064;2022-11-25T08:41:20;3.00;1.00
4795;DHT22;2411;47.060;15.064;2022-11-25T08:43:48;3.00;1.00
4795;DHT22;2411;47.060;15.064;2022-11-25T08:46:22;3.00;1.00
4795;DHT22;2411;47.060;15.064;2022-11-25T08:48:49;3.10;1.00
4795;DHT22;2411;47.060;15.064;2022-11-25T08:51:28;3.10;1.00
4795;DHT22;2411;47.060;15.064;2022-11-25T08:53:56;3.20;1.00
4795;DHT22;2411;47.060;15.064;2022-11-25T08:56:25;3.30;1.00
4795;DHT22;2411;47.060;15.064;2022-11-25T08:58:53;3.50;1.00
4795;DHT22;2411;47.060;15.064;2022-11-25T09:01:23;3.60;1.00
4795;DHT22;2411;47.060;15.064;2022-11-25T09:03:52;3.70;1.00
4795;DHT22;2411;47.060;15.064;2022-11-25T09:06:22;3.80;1.00
4795;DHT22;2411;47.060;15.064;2022-11-25T09:08:50;3.80;1.00
4795;DHT22;2411;47.060;15.064;2022-11-25T09:11:20;3.90;1.00
4795;DHT22;2411;47.060;15.064;2022-11-25T09:13:47;4.10;1.00
4795;DHT22;2411;47.060;15.064;2022-11-25T09:16:14;4.20;1.00
4795;DHT22;2411;47.060;15.064;2022-11-25T09:18:41;4.20;1.00
4795;DHT22;2411;47.060;15.064;2022-11-25T09:21:11;4.30;1.00
4795;DHT22;2411;47.060;15.064;2022-11-25T09:23:39;4.30;1.00
4795;DHT22;2411;47.060;15.064;2022-11-25T09:26:07;4.40;1.00
4795;DHT22;2411;47.060;15.064;2022-11-25T09:28:43;4.50;1.00
4795;DHT22;2411;47.060;15.064;2022-11-25T09:31:10;4.60;1.00
4795;DHT22;2411;47.060;15.064;2022-11-25T09:33:38;4.70;1.00
4795;DHT22;2411;47.060;15.064;2022-11-25T09:36:05;4.70;1.00
4795;DHT22;2411;47.060;15.064;2022-11-25T09:38:33;4.90;10.00
4795;DHT22;2411;47.060;15.064;2022-11-25T09:41:14;4.90;1.00
4795;DHT22;2411;47.060;15.064;2022-11-25T09:44:40;5.00;1.00
4795;DHT22;2411;47.060;15.064;2022-11-25T09:55:50;5.40;1.00
4795;DHT22;2411;47.060;15.064;2022-11-25T09:58:39;5.50;1.00
4795;DHT22;2411;47.060;15.064;2022-11-25T10:01:21;5.60;1.00
4795;DHT22;2411;47.060;15.064;2022-11-25T10:03:58;5.60;1.00
4795;DHT22;2411;47.060;15.064;2022-11-25T10:06:30;5.60;8.70
4795;DHT22;2411;47.060;15.064;2022-11-25T10:09:01;5.70;1.00
4795;DHT22;2411;47.060;15.064;2022-11-25T10:11:41;5.70;1.00
4795;DHT22;2411;47.060;15.064;2022-11-25T10:14:33;5.80;1.00
4795;DHT22;2411;47.060;15.064;2022-11-25T10:17:09;5.90;1.00
4795;DHT22;2411;47.060;15.064;2022-11-25T10:20:00;5.90;1.00
4795;DHT22;2411;47.060;15.064;2022-11-25T10:22:35;5.90;1.00
4795;DHT22;2411;47.060;15.064;2022-11-25T10:25:16;6.00;1.00
4795;DHT22;2411;47.060;15.064;2022-11-25T10:27:57;6.10;1.00
4795;DHT22;2411;47.060;15.064;2022-11-25T10:30:31;6.10;1.00
4795;DHT22;2411;47.060;15.064;2022-11-25T10:33:33;6.20;1.00
4795;DHT22;2411;47.060;15.064;2022-11-25T10:38:32;6.40;1.00
4795;DHT22;2411;47.060;15.064;2022-11-25T10:41:02;6.40;1.00
4795;DHT22;2411;47.060;15.064;2022-11-25T10:43:31;6.60;1.00
4795;DHT22;2411;47.060;15.064;2022-11-25T10:49:01;6.70;1.00
4795;DHT22;2411;47.060;15.064;2022-11-25T10:51:45;6.70;1.00
4795;DHT22;2411;47.060;15.064;2022-11-25T10:54:17;6.80;1.00
4795;DHT22;2411;47.060;15.064;2022-11-25T10:57:00;6.80;1.00
4795;DHT22;2411;47.060;15.064;2022-11-25T10:59:38;6.90;1.00
4795;DHT22;2411;47.060;15.064;2022-11-25T11:02:25;6.90;1.00
4795;DHT22;2411;47.060;15.064;2022-11-25T11:07:23;6.80;1.00
4795;DHT22;2411;47.060;15.064;2022-11-25T11:09:51;7.00;1.00
4795;DHT22;2411;47.060;15.064;2022-11-25T11:15:23;7.10;1.00
4795;DHT22;2411;47.060;15.064;2022-11-25T11:17:51;7.10;1.00
4795;DHT22;2411;47.060;15.064;2022-11-25T11:20:27;7.20;1.00
4795;DHT22;2411;47.060;15.064;2022-11-25T11:23:06;7.20;1.00
4795;DHT22;2411;47.060;15.064;2022-11-25T11:25:37;7.10;1.00
4795;DHT22;2411;47.060;15.064;2022-11-25T11:31:21;7.30;1.00
4795;DHT22;2411;47.060;15.064;2022-11-25T11:45:22;7.40;1.00
4795;DHT22;2411;47.060;15.064;2022-11-25T11:48:58;7.50;1.00
4795;DHT22;2411;47.060;15.064;2022-11-25T11:56:56;7.50;1.00
4795;DHT22;2411;47.060;15.064;2022-11-25T11:59:30;7.50;1.00
4795;DHT22;2411;47.060;15.064;2022-11-25T12:15:56;7.60;1.00
4795;DHT22;2411;47.060;15.064;2022-11-25T12:35:19;8.00;1.00
4795;DHT22;2411;47.060;15.064;2022-11-25T12:41:21;8.10;1.00
4795;DHT22;2411;47.060;15.064;2022-11-25T12:46:32;8.20;1.00
4795;DHT22;2411;47.060;15.064;2022-11-25T12:49:01;8.20;1.00
4795;DHT22;2411;47.060;15.064;2022-11-25T13:06:05;8.30;1.00
4795;DHT22;2411;47.060;15.064;2022-11-25T13:16:48;8.30;1.00
4795;DHT22;2411;47.060;15.064;2022-11-25T13:19:18;8.20;1.00
4795;DHT22;2411;47.060;15.064;2022-11-25T13:24:38;8.20;1.00
4795;DHT22;2411;47.060;15.064;2022-11-25T13:27:29;8.10;1.00
4795;DHT22;2411;47.060;15.064;2022-11-25T13:29:58;8.00;1.00
4795;DHT22;2411;47.060;15.064;2022-11-25T13:32:35;7.90;1.00
4795;DHT22;2411;47.060;15.064;2022-11-25T13:35:30;7.80;1.00
4795;DHT22;2411;47.060;15.064;2022-11-25T13:37:57;7.60;1.00
4795;DHT22;2411;47.060;15.064;2022-11-25T13:42:52;7.50;1.00
4795;DHT22;2411;47.060;15.064;2022-11-25T13:45:34;7.50;1.00
4795;DHT22;2411;47.060;15.064;2022-11-25T13:51:03;7.70;1.00
4795;DHT22;2411;47.060;15.064;2022-11-25T13:53:38;7.80;1.00
4795;DHT22;2411;47.060;15.064;2022-11-25T13:56:28;7.90;1.00
4795;DHT22;2411;47.060;15.064;2022-11-25T14:01:37;8.20;1.00
4795;DHT22;2411;47.060;15.064;2022-11-25T14:04:11;8.20;1.00
4795;DHT22;2411;47.060;15.064;2022-11-25T14:07:05;8.30;1.00
4795;DHT22;2411;47.060;15.064;2022-11-25T14:09:50;8.30;1.00
4795;DHT22;2411;47.060;15.064;2022-11-25T14:25:52;7.80;1.00
4795;DHT22;2411;47.060;15.064;2022-11-25T14:28:35;7.70;1.00
4795;DHT22;2411;47.060;15.064;2022-11-25T14:31:13;7.60;1.00
4795;DHT22;2411;47.060;15.064;2022-11-25T14:33:59;7.50;1.00
4795;DHT22;2411;47.060;15.064;2022-11-25T14:36:31;7.40;1.00
4795;DHT22;2411;47.060;15.064;2022-11-25T14:39:17;7.20;1.00
4795;DHT22;2411;47.060;15.064;2022-11-25T14:42:04;7.00;1.00
4795;DHT22;2411;47.060;15.064;2022-11-25T14:44:51;6.70;1.00
4795;DHT22;2411;47.060;15.064;2022-11-25T14:47:23;6.50;1.00
4795;DHT22;2411;47.060;15.064;2022-11-25T14:49:55;6.30;1.00
4795;DHT22;2411;47.060;15.064;2022-11-25T14:52:44;6.00;1.00
4795;DHT22;2411;47.060;15.064;2022-11-25T14:55:27;5.80;1.00
4795;DHT22;2411;47.060;15.064;2022-11-25T14:57:55;5.60;1.00
4795;DHT22;2411;47.060;15.064;2022-11-25T15:00:22;5.40;1.00
4795;DHT22;2411;47.060;15.064;2022-11-25T15:02:58;5.40;1.00
4795;DHT22;2411;47.060;15.064;2022-11-25T15:08:01;5.20;1.00
4795;DHT22;2411;47.060;15.064;2022-11-25T15:10:49;5.10;1.00
4795;DHT22;2411;47.060;15.064;2022-11-25T15:13:35;5.00;1.00
4795;DHT22;2411;47.060;15.064;2022-11-25T15:16:18;5.00;1.00
4795;DHT22;2411;47.060;15.064;2022-11-25T15:18:57;5.00;1.00
4795;DHT22;2411;47.060;15.064;2022-11-25T15:21:34;5.00;1.00
4795;DHT22;2411;47.060;15.064;2022-11-25T15:24:27;4.90;1.00
4795;DHT22;2411;47.060;15.064;2022-11-25T15:26:58;4.50;1.00
4795;DHT22;2411;47.060;15.064;2022-11-25T15:29:28;4.40;1.00
4795;DHT22;2411;47.060;15.064;2022-11-25T15:31:57;4.30;1.00
4795;DHT22;2411;47.060;15.064;2022-11-25T15:34:28;4.20;1.00
4795;DHT22;2411;47.060;15.064;2022-11-25T15:36:59;4.20;1.00
4795;DHT22;2411;47.060;15.064;2022-11-25T15:39:27;4.30;1.00
4795;DHT22;2411;47.060;15.064;2022-11-25T15:42:14;4.20;1.00
4795;DHT22;2411;47.060;15.064;2022-11-25T15:47:27;4.30;1.00
4795;DHT22;2411;47.060;15.064;2022-11-25T15:52:36;4.10;1.00
4795;DHT22;2411;47.060;15.064;2022-11-25T15:55:32;3.90;1.00
4795;DHT22;2411;47.060;15.064;2022-11-25T15:58:21;3.80;1.00
4795;DHT22;2411;47.060;15.064;2022-11-25T16:01:03;3.70;1.00
4795;DHT22;2411;47.060;15.064;2022-11-25T16:03:31;3.60;1.00
4795;DHT22;2411;47.060;15.064;2022-11-25T16:05:59;3.40;1.00
4795;DHT22;2411;47.060;15.064;2022-11-25T16:11:12;3.50;1.00
4795;DHT22;2411;47.060;15.064;2022-11-25T16:13:42;3.60;1.00
4795;DHT22;2411;47.060;15.064;2022-11-25T16:29:33;3.10;1.00
4795;DHT22;2411;47.060;15.064;2022-11-25T16:32:21;3.10;1.00
4795;DHT22;2411;47.060;15.064;2022-11-25T16:34:49;3.20;1.00
4795;DHT22;2411;47.060;15.064;2022-11-25T16:37:17;3.30;1.00
4795;DHT22;2411;47.060;15.064;2022-11-25T16:39:44;3.40;1.00
4795;DHT22;2411;47.060;15.064;2022-11-25T16:42:18;3.50;1.00
4795;DHT22;2411;47.060;15.064;2022-11-25T16:44:50;3.60;1.00
4795;DHT22;2411;47.060;15.064;2022-11-25T16:47:19;3.60;1.00
4795;DHT22;2411;47.060;15.064;2022-11-25T16:49:47;3.60;1.00
4795;DHT22;2411;47.060;15.064;2022-11-25T16:52:15;3.60;1.00
4795;DHT22;2411;47.060;15.064;2022-11-25T16:54:42;3.50;1.00
4795;DHT22;2411;47.060;15.064;2022-11-25T16:57:16;3.40;1.00
4795;DHT22;2411;47.060;15.064;2022-11-25T16:59:44;3.40;1.00
4795;DHT22;2411;47.060;15.064;2022-11-25T17:02:20;3.30;1.00
4795;DHT22;2411;47.060;15.064;2022-11-25T17:04:48;3.20;1.00
4795;DHT22;2411;47.060;15.064;2022-11-25T17:07:17;3.10;1.00
4795;DHT22;2411;47.060;15.064;2022-11-25T17:09:59;3.10;1.00
4795;DHT22;2411;47.060;15.064;2022-11-25T17:12:30;3.10;1.00
4795;DHT22;2411;47.060;15.064;2022-11-25T17:14:58;3.30;1.00
4795;DHT22;2411;47.060;15.064;2022-11-25T17:17:26;3.30;1.00
4795;DHT22;2411;47.060;15.064;2022-11-25T17:19:54;3.30;1.00
4795;DHT22;2411;47.060;15.064;2022-11-25T17:22:24;3.40;1.00
4795;DHT22;2411;47.060;15.064;2022-11-25T17:24:51;3.50;1.00
4795;DHT22;2411;47.060;15.064;2022-11-25T17:27:30;3.50;1.00
4795;DHT22;2411;47.060;15.064;2022-11-25T17:30:00;3.60;1.00
4795;DHT22;2411;47.060;15.064;2022-11-25T17:32:27;3.60;1.00
4795;DHT22;2411;47.060;15.064;2022-11-25T17:34:54;3.60;1.00
4795;DHT22;2411;47.060;15.064;2022-11-25T17:37:23;3.60;1.00
4795;DHT22;2411;47.060;15.064;2022-11-25T17:39:51;3.50;1.00
4795;DHT22;2411;47.060;15.064;2022-11-25T17:42:28;3.50;1.00
4795;DHT22;2411;47.060;15.064;2022-11-25T17:44:56;3.50;1.00
4795;DHT22;2411;47.060;15.064;2022-11-25T17:47:23;3.50;4.10
4795;DHT22;2411;47.060;15.064;2022-11-25T17:49:50;3.40;1.00
4795;DHT22;2411;47.060;15.064;2022-11-25T17:52:18;3.30;1.00
4795;DHT22;2411;47.060;15.064;2022-11-25T17:54:46;3.30;1.00
4795;DHT22;2411;47.060;15.064;2022-11-25T17:57:22;3.20;1.00
4795;DHT22;2411;47.060;15.064;2022-11-25T17:59:55;3.10;1.00
4795;DHT22;2411;47.060;15.064;2022-11-25T18:02:22;3.00;1.00
4795;DHT22;2411;47.060;15.064;2022-11-25T18:04:49;3.00;1.00
4795;DHT22;2411;47.060;15.064;2022-11-25T18:07:17;3.00;1.00
4795;DHT22;2411;47.060;15.064;2022-11-25T18:09:44;2.90;1.00
4795;DHT22;2411;47.060;15.064;2022-11-25T18:12:20;3.00;1.00
4795;DHT22;2411;47.060;15.064;2022-11-25T18:14:48;3.00;1.00
4795;DHT22;2411;47.060;15.064;2022-11-25T18:17:17;3.10;1.00
4795;DHT22;2411;47.060;15.064;2022-11-25T18:19:45;3.10;1.00
4795;DHT22;2411;47.060;15.064;2022-11-25T18:22:22;3.10;1.00
4795;DHT22;2411;47.060;15.064;2022-11-25T18:24:51;3.20;1.00
4795;DHT22;2411;47.060;15.064;2022-11-25T18:27:22;3.20;1.00
4795;DHT22;2411;47.060;15.064;2022-11-25T18:29:51;3.20;1.00
4795;DHT22;2411;47.060;15.064;2022-11-25T18:32:19;3.20;1.00
4795;DHT22;2411;47.060;15.064;2022-11-25T18:34:46;3.10;1.00
4795;DHT22;2411;47.060;15.064;2022-11-25T18:37:14;3.10;1.00
4795;DHT22;2411;47.060;15.064;2022-11-25T18:39:43;3.00;1.00
4795;DHT22;2411;47.060;15.064;2022-11-25T18:42:22;2.90;1.00
4795;DHT22;2411;47.060;15.064;2022-11-25T18:44:51;2.80;1.00
4795;DHT22;2411;47.060;15.064;2022-11-25T18:47:20;2.90;1.00
4795;DHT22;2411;47.060;15.064;2022-11-25T18:49:47;3.00;1.00
4795;DHT22;2411;47.060;15.064;2022-11-25T18:52:21;3.00;1.00
4795;DHT22;2411;47.060;15.064;2022-11-25T18:54:49;2.90;1.00
4795;DHT22;2411;47.060;15.064;2022-11-25T18:57:16;2.90;1.00
4795;DHT22;2411;47.060;15.064;2022-11-25T18:59:44;2.80;1.00
4795;DHT22;2411;47.060;15.064;2022-11-25T19:02:22;2.80;1.00
4795;DHT22;2411;47.060;15.064;2022-11-25T19:04:49;2.80;1.00
4795;DHT22;2411;47.060;15.064;2022-11-25T19:07:16;2.80;1.00
4795;DHT22;2411;47.060;15.064;2022-11-25T19:09:44;2.80;1.00
4795;DHT22;2411;47.060;15.064;2022-11-25T19:12:16;2.90;1.00
4795;DHT22;2411;47.060;15.064;2022-11-25T19:14:45;3.00;1.00
4795;DHT22;2411;47.060;15.064;2022-11-25T19:17:20;3.00;1.00
4795;DHT22;2411;47.060;15.064;2022-11-25T19:19:50;2.90;1.00
4795;DHT22;2411;47.060;15.064;2022-11-25T19:22:18;2.80;1.00